createdAt,value
2018-02-09T00:00:25.437Z,4.16
2018-02-09T00:01:25.480Z,4.18
2018-02-09T00:02:25.442Z,4.15
2018-02-09T00:03:25.344Z,4.18
2018-02-09T00:04:25.582Z,4.19
2018-02-09T00:05:25.516Z,4.19
2018-02-09T00:06:25.386Z,4.19
2018-02-09T00:07:25.406Z,4.2
2018-02-09T00:08:25.382Z,4.21
2018-02-09T00:09:25.611Z,4.2
2018-02-09T00:10:25.575Z,4.17
2018-02-09T00:11:25.573Z,4.18
2018-02-09T00:12:25.544Z,4.17
2018-02-09T00:13:25.458Z,4.16
2018-02-09T00:14:25.528Z,4.16
2018-02-09T00:15:25.564Z,4.18
2018-02-09T00:16:25.510Z,4.18
2018-02-09T00:17:25.405Z,4.18
2018-02-09T00:18:25.400Z,4.18
2018-02-09T00:19:25.511Z,4.18
2018-02-09T00:20:25.532Z,4.21
2018-02-09T00:21:25.538Z,4.19
2018-02-09T00:22:25.446Z,4.17
2018-02-09T00:23:25.463Z,4.19
2018-02-09T00:24:25.466Z,4.18
2018-02-09T00:25:25.404Z,4.2
2018-02-09T00:26:25.435Z,4.19
2018-02-09T00:27:25.360Z,4.17
2018-02-09T00:28:25.313Z,4.15
2018-02-09T00:29:25.559Z,4.16
2018-02-09T00:30:25.566Z,4.16
2018-02-09T00:31:25.504Z,4.19
2018-02-09T00:32:25.540Z,4.2
2018-02-09T00:33:25.440Z,4.19
2018-02-09T00:34:25.454Z,4.19
2018-02-09T00:35:25.444Z,4.17
2018-02-09T00:36:25.221Z,4.19
2018-02-09T00:37:25.251Z,4.21
2018-02-09T00:38:25.168Z,4.22
2018-02-09T00:39:25.373Z,4.21
2018-02-09T00:40:25.335Z,4.2
2018-02-09T00:41:25.301Z,4.21
2018-02-09T00:42:25.420Z,4.19
2018-02-09T00:43:25.248Z,4.19
2018-02-09T00:44:25.236Z,4.18
2018-02-09T00:45:25.336Z,4.2
2018-02-09T00:46:25.586Z,4.2
2018-02-09T00:47:25.451Z,4.22
2018-02-09T00:48:25.336Z,4.21
2018-02-09T00:49:25.252Z,4.21
2018-02-09T00:50:25.283Z,4.2
2018-02-09T00:51:25.253Z,4.21
2018-02-09T00:52:25.351Z,4.2
2018-02-09T00:53:25.230Z,4.18
2018-02-09T00:54:25.212Z,4.2
2018-02-09T00:55:25.224Z,4.24
2018-02-09T00:56:25.294Z,4.22
2018-02-09T00:57:25.308Z,4.2
2018-02-09T00:58:25.253Z,4.21
2018-02-09T00:59:25.363Z,4.2
2018-02-09T01:00:25.534Z,4.21
2018-02-09T01:01:25.350Z,4.2
2018-02-09T01:02:25.229Z,4.2
2018-02-09T01:03:25.313Z,4.2
2018-02-09T01:04:25.259Z,4.21
2018-02-09T01:05:25.463Z,4.21
2018-02-09T01:06:25.316Z,4.21
2018-02-09T01:07:25.694Z,4.2
2018-02-09T01:08:25.494Z,4.2
2018-02-09T01:09:25.492Z,4.21
2018-02-09T01:10:25.429Z,4.22
2018-02-09T01:11:25.466Z,4.23
2018-02-09T01:12:25.571Z,4.22
2018-02-09T01:13:25.599Z,4.22
2018-02-09T01:14:25.400Z,4.23
2018-02-09T01:15:25.481Z,4.23
2018-02-09T01:16:25.396Z,4.24
2018-02-09T01:17:25.414Z,4.25
2018-02-09T01:18:25.460Z,4.23
2018-02-09T01:19:25.392Z,4.25
2018-02-09T01:20:25.351Z,4.25
2018-02-09T01:21:25.336Z,4.23
2018-02-09T01:22:25.324Z,4.22
2018-02-09T01:23:25.546Z,4.23
2018-02-09T01:24:25.492Z,4.25
2018-02-09T01:25:25.435Z,4.22
2018-02-09T01:26:25.371Z,4.24
2018-02-09T01:27:25.418Z,4.25
2018-02-09T01:28:25.541Z,4.24
2018-02-09T01:29:25.380Z,4.23
2018-02-09T01:30:25.541Z,4.23
2018-02-09T01:32:25.302Z,4.24
2018-02-09T01:33:25.421Z,4.25
2018-02-09T01:34:25.335Z,4.22
2018-02-09T01:35:25.487Z,4.21
2018-02-09T01:36:25.375Z,4.23
2018-02-09T01:37:25.381Z,4.22
2018-02-09T01:38:25.382Z,4.22
2018-02-09T01:39:25.616Z,4.23
2018-02-09T01:40:25.549Z,4.23
2018-02-09T01:41:25.313Z,4.23
2018-02-09T01:42:25.391Z,4.22
2018-02-09T01:43:25.336Z,4.23
2018-02-09T01:44:25.322Z,4.24
2018-02-09T01:45:25.501Z,4.24
2018-02-09T01:46:25.638Z,4.22
2018-02-09T01:47:25.422Z,4.24
2018-02-09T01:48:25.431Z,4.23
2018-02-09T01:49:25.739Z,4.22
2018-02-09T01:50:25.436Z,4.22
2018-02-09T01:51:25.615Z,4.23
2018-02-09T01:52:25.439Z,4.23
2018-02-09T01:53:25.583Z,4.24
2018-02-09T01:54:25.634Z,4.23
2018-02-09T01:55:25.568Z,4.21
2018-02-09T01:56:25.477Z,4.21
2018-02-09T01:57:25.525Z,4.21
2018-02-09T01:58:25.431Z,4.22
2018-02-09T01:59:25.540Z,4.21
2018-02-09T02:00:25.545Z,4.21
2018-02-09T02:01:25.670Z,4.21
2018-02-09T02:02:25.513Z,4.21
2018-02-09T02:03:25.479Z,4.22
2018-02-09T02:04:25.617Z,4.22
2018-02-09T02:05:25.678Z,4.23
2018-02-09T02:06:25.452Z,4.21
2018-02-09T02:07:25.749Z,4.2
2018-02-09T02:08:25.481Z,4.21
2018-02-09T02:09:25.601Z,4.22
2018-02-09T02:10:25.550Z,4.22
2018-02-09T02:11:25.503Z,4.21
2018-02-09T02:12:25.658Z,4.21
2018-02-09T02:13:25.496Z,4.2
2018-02-09T02:14:25.444Z,4.23
2018-02-09T02:15:25.622Z,4.22
2018-02-09T02:16:25.538Z,4.22
2018-02-09T02:17:25.567Z,4.21
2018-02-09T02:18:25.662Z,4.22
2018-02-09T02:19:25.502Z,4.21
2018-02-09T02:20:25.553Z,4.23
2018-02-09T02:21:25.606Z,4.2
2018-02-09T02:22:25.809Z,4.2
2018-02-09T02:23:25.531Z,4.21
2018-02-09T02:24:25.742Z,4.21
2018-02-09T02:25:25.522Z,4.2
2018-02-09T02:26:25.542Z,4.2
2018-02-09T02:27:25.617Z,4.21
2018-02-09T02:28:25.565Z,4.2
2018-02-09T02:29:25.784Z,4.21
2018-02-09T02:30:25.568Z,4.2
2018-02-09T02:31:25.637Z,4.2
2018-02-09T02:32:25.636Z,4.2
2018-02-09T02:33:25.508Z,4.2
2018-02-09T02:34:25.643Z,4.2
2018-02-09T02:35:25.475Z,4.19
2018-02-09T02:36:25.622Z,4.21
2018-02-09T02:37:25.458Z,4.21
2018-02-09T02:38:25.460Z,4.2
2018-02-09T02:39:25.575Z,4.19
2018-02-09T02:40:25.689Z,4.21
2018-02-09T02:41:25.510Z,4.2
2018-02-09T02:42:25.585Z,4.22
2018-02-09T02:43:25.618Z,4.21
2018-02-09T02:44:25.499Z,4.2
2018-02-09T02:45:25.548Z,4.21
2018-02-09T02:46:25.692Z,4.2
2018-02-09T02:47:25.621Z,4.22
2018-02-09T02:48:25.514Z,4.24
2018-02-09T02:49:25.705Z,4.23
2018-02-09T02:50:25.598Z,4.24
2018-02-09T02:51:25.638Z,4.24
2018-02-09T02:52:25.499Z,4.23
2018-02-09T02:53:25.578Z,4.25
2018-02-09T02:54:25.593Z,4.22
2018-02-09T02:55:25.514Z,4.22
2018-02-09T02:56:25.759Z,4.23
2018-02-09T02:57:25.537Z,4.24
2018-02-09T02:58:25.580Z,4.23
2018-02-09T02:59:25.582Z,4.24
2018-02-09T03:00:25.386Z,4.24
2018-02-09T03:01:25.409Z,4.23
2018-02-09T03:02:25.617Z,4.25
2018-02-09T03:03:25.452Z,4.24
2018-02-09T03:04:25.557Z,4.23
2018-02-09T03:05:25.649Z,4.21
2018-02-09T03:06:25.550Z,4.25
2018-02-09T03:07:25.507Z,4.26
2018-02-09T03:08:25.382Z,4.23
2018-02-09T03:09:25.572Z,4.24
2018-02-09T03:10:25.362Z,4.24
2018-02-09T03:11:25.525Z,4.25
2018-02-09T03:12:25.493Z,4.23
2018-02-09T03:13:25.395Z,4.24
2018-02-09T03:14:25.403Z,4.24
2018-02-09T03:15:25.533Z,4.25
2018-02-09T03:16:25.524Z,4.23
2018-02-09T03:17:25.830Z,4.26
2018-02-09T03:18:25.568Z,4.26
2018-02-09T03:19:25.611Z,4.24
2018-02-09T03:20:25.447Z,4.24
2018-02-09T03:21:25.563Z,4.27
2018-02-09T03:22:25.475Z,4.27
2018-02-09T03:23:25.434Z,4.24
2018-02-09T03:24:25.503Z,4.25
2018-02-09T03:25:25.493Z,4.24
2018-02-09T03:26:25.399Z,4.25
2018-02-09T03:27:25.403Z,4.27
2018-02-09T03:28:25.583Z,4.27
2018-02-09T03:29:25.424Z,4.25
2018-02-09T03:30:25.349Z,4.26
2018-02-09T03:31:25.400Z,4.25
2018-02-09T03:32:25.590Z,4.25
2018-02-09T03:33:25.418Z,4.25
2018-02-09T03:34:25.532Z,4.27
2018-02-09T03:35:25.587Z,4.26
2018-02-09T03:36:25.523Z,4.27
2018-02-09T03:37:25.420Z,4.27
2018-02-09T03:38:25.713Z,4.28
2018-02-09T03:39:25.601Z,4.3
2018-02-09T03:40:25.689Z,4.32
2018-02-09T03:41:25.726Z,4.29
2018-02-09T03:42:25.679Z,4.28
2018-02-09T03:43:25.716Z,4.28
2018-02-09T03:44:25.859Z,4.27
2018-02-09T03:45:25.657Z,4.27
2018-02-09T03:46:25.753Z,4.26
2018-02-09T03:47:25.756Z,4.26
2018-02-09T03:48:25.721Z,4.28
2018-02-09T03:49:25.682Z,4.3
2018-02-09T03:50:25.733Z,4.32
2018-02-09T03:51:25.682Z,4.32
2018-02-09T03:52:25.596Z,4.3
2018-02-09T03:53:25.726Z,4.29
2018-02-09T03:54:25.720Z,4.29
2018-02-09T03:55:25.730Z,4.29
2018-02-09T03:56:25.602Z,4.29
2018-02-09T03:57:25.740Z,4.31
2018-02-09T03:58:25.758Z,4.32
2018-02-09T03:59:25.658Z,4.32
2018-02-09T04:00:25.774Z,4.31
2018-02-09T04:01:25.479Z,4.33
2018-02-09T04:02:25.670Z,4.33
2018-02-09T04:03:25.687Z,4.32
2018-02-09T04:04:25.627Z,4.31
2018-02-09T04:05:25.741Z,4.3
2018-02-09T04:06:25.716Z,4.27
2018-02-09T04:07:25.739Z,4.29
2018-02-09T04:08:25.759Z,4.29
2018-02-09T04:09:25.755Z,4.31
2018-02-09T04:10:25.903Z,4.32
2018-02-09T04:11:25.907Z,4.31
2018-02-09T04:12:25.904Z,4.31
2018-02-09T04:13:25.869Z,4.35
2018-02-09T04:14:25.917Z,4.36
2018-02-09T04:15:25.998Z,4.34
2018-02-09T04:16:25.804Z,4.32
2018-02-09T04:17:25.856Z,4.33
2018-02-09T04:18:25.773Z,4.34
2018-02-09T04:19:25.806Z,4.31
2018-02-09T04:20:25.779Z,4.31
2018-02-09T04:21:25.987Z,4.34
2018-02-09T04:22:25.867Z,4.33
2018-02-09T04:23:25.852Z,4.33
2018-02-09T04:24:25.719Z,4.32
2018-02-09T04:25:25.746Z,4.33
2018-02-09T04:26:25.790Z,4.33
2018-02-09T04:27:25.740Z,4.32
2018-02-09T04:30:37.806Z,4.33
2018-02-09T04:31:25.728Z,4.32
2018-02-09T04:32:25.896Z,4.33
2018-02-09T04:33:25.865Z,4.32
2018-02-09T04:34:25.870Z,4.32
2018-02-09T04:35:25.744Z,4.34
2018-02-09T04:36:25.756Z,4.32
2018-02-09T04:37:25.902Z,4.33
2018-02-09T04:38:25.925Z,4.32
2018-02-09T04:39:25.768Z,4.32
2018-02-09T04:40:26.053Z,4.33
2018-02-09T04:41:25.658Z,4.33
2018-02-09T04:42:25.725Z,4.34
2018-02-09T04:43:25.680Z,4.34
2018-02-09T04:44:25.640Z,4.34
2018-02-09T04:45:25.729Z,4.35
2018-02-09T04:46:25.765Z,4.34
2018-02-09T04:47:25.675Z,4.35
2018-02-09T04:48:25.625Z,4.33
2018-02-09T04:49:25.666Z,4.34
2018-02-09T04:50:25.588Z,4.33
2018-02-09T04:51:25.670Z,4.35
2018-02-09T04:52:25.707Z,4.34
2018-02-09T04:53:25.663Z,4.34
2018-02-09T04:54:25.587Z,4.36
2018-02-09T04:55:25.821Z,4.34
2018-02-09T04:56:25.553Z,4.33
2018-02-09T04:57:25.628Z,4.32
2018-02-09T04:58:25.582Z,4.33
2018-02-09T04:59:25.747Z,4.35
2018-02-09T05:00:25.789Z,4.34
2018-02-09T05:01:25.621Z,4.32
2018-02-09T05:02:25.619Z,4.34
2018-02-09T05:03:25.568Z,4.35
2018-02-09T05:04:25.564Z,4.33
2018-02-09T05:05:25.669Z,4.34
2018-02-09T05:06:25.637Z,4.33
2018-02-09T05:07:25.645Z,4.35
2018-02-09T05:08:25.796Z,4.34
2018-02-09T05:09:25.839Z,4.36
2018-02-09T05:10:25.920Z,4.36
2018-02-09T05:11:25.978Z,4.36
2018-02-09T05:12:25.838Z,4.34
2018-02-09T05:13:25.878Z,4.35
2018-02-09T05:14:25.907Z,4.35
2018-02-09T05:15:25.806Z,4.35
2018-02-09T05:16:25.834Z,4.37
2018-02-09T05:17:25.953Z,4.36
2018-02-09T05:18:25.840Z,4.36
2018-02-09T05:19:25.846Z,4.37
2018-02-09T05:20:25.876Z,4.35
2018-02-09T05:21:25.740Z,4.35
2018-02-09T05:22:25.864Z,4.34
2018-02-09T05:23:25.885Z,4.37
2018-02-09T05:24:25.933Z,4.37
2018-02-09T05:25:25.862Z,4.36
2018-02-09T05:26:25.906Z,4.37
2018-02-09T05:27:25.736Z,4.38
2018-02-09T05:28:25.720Z,4.38
2018-02-09T05:29:25.775Z,4.34
2018-02-09T05:30:25.882Z,4.35
2018-02-09T05:31:25.873Z,4.36
2018-02-09T05:32:25.912Z,4.35
2018-02-09T05:33:25.772Z,4.37
2018-02-09T05:34:25.838Z,4.38
2018-02-09T05:35:25.795Z,4.37
2018-02-09T05:36:25.697Z,4.38
2018-02-09T05:37:25.810Z,4.36
2018-02-09T05:38:25.887Z,4.35
2018-02-09T05:39:25.853Z,4.37
2018-02-09T05:40:25.813Z,4.38
2018-02-09T05:41:25.711Z,4.37
2018-02-09T05:42:25.798Z,4.39
2018-02-09T05:43:25.775Z,4.39
2018-02-09T05:44:25.871Z,4.37
2018-02-09T05:45:25.713Z,4.34
2018-02-09T05:46:25.631Z,4.35
2018-02-09T05:47:25.694Z,4.38
2018-02-09T05:48:25.768Z,4.37
2018-02-09T05:49:25.731Z,4.39
2018-02-09T05:50:25.604Z,4.37
2018-02-09T05:51:25.754Z,4.38
2018-02-09T05:52:25.735Z,4.37
2018-02-09T05:53:25.818Z,4.36
2018-02-09T05:54:25.792Z,4.37
2018-02-09T05:55:25.647Z,4.38
2018-02-09T05:56:25.639Z,4.37
2018-02-09T05:57:25.708Z,4.37
2018-02-09T05:58:25.736Z,4.38
2018-02-09T05:59:25.659Z,4.39
2018-02-09T06:00:25.610Z,4.37
2018-02-09T06:01:25.743Z,4.38
2018-02-09T06:02:25.718Z,4.39
2018-02-09T06:03:25.815Z,4.38
2018-02-09T06:04:25.741Z,4.38
2018-02-09T06:05:25.881Z,4.36
2018-02-09T06:06:25.825Z,4.38
2018-02-09T06:07:25.804Z,4.36
2018-02-09T06:08:25.667Z,4.38
2018-02-09T06:09:25.620Z,4.38
2018-02-09T06:10:25.704Z,4.38
2018-02-09T06:11:37.694Z,4.4
2018-02-09T06:12:25.810Z,4.4
2018-02-09T06:13:25.620Z,4.38
2018-02-09T06:14:25.720Z,4.37
2018-02-09T06:15:25.752Z,4.36
2018-02-09T06:16:25.872Z,4.37
2018-02-09T06:17:25.822Z,4.37
2018-02-09T06:18:25.818Z,4.39
2018-02-09T06:19:25.756Z,4.38
2018-02-09T06:20:25.661Z,4.36
2018-02-09T06:21:25.678Z,4.37
2018-02-09T06:22:25.744Z,4.37
2018-02-09T06:23:25.733Z,4.38
2018-02-09T06:24:25.711Z,4.36
2018-02-09T06:25:25.809Z,4.36
2018-02-09T06:26:25.783Z,4.36
2018-02-09T06:27:25.695Z,4.36
2018-02-09T06:28:25.759Z,4.37
2018-02-09T06:29:25.642Z,4.36
2018-02-09T06:30:25.670Z,4.37
2018-02-09T06:31:25.691Z,4.39
2018-02-09T06:32:25.699Z,4.36
2018-02-09T06:33:25.704Z,4.39
2018-02-09T06:34:25.814Z,4.39
2018-02-09T06:35:25.743Z,4.38
2018-02-09T06:36:25.691Z,4.37
2018-02-09T06:37:25.902Z,4.38
2018-02-09T06:38:25.744Z,4.38
2018-02-09T06:39:25.789Z,4.38
2018-02-09T06:40:25.746Z,4.37
2018-02-09T06:41:25.799Z,4.37
2018-02-09T06:42:25.808Z,4.37
2018-02-09T06:43:25.765Z,4.37
2018-02-09T06:44:25.668Z,4.38
2018-02-09T06:45:26.007Z,4.38
2018-02-09T06:46:25.861Z,4.39
2018-02-09T06:47:25.852Z,4.38
2018-02-09T06:48:25.853Z,4.36
2018-02-09T06:49:25.713Z,4.39
2018-02-09T06:50:25.852Z,4.38
2018-02-09T06:51:25.800Z,4.37
2018-02-09T06:52:25.645Z,4.37
2018-02-09T06:53:25.609Z,4.37
2018-02-09T06:54:25.830Z,4.38
2018-02-09T06:55:25.821Z,4.41
2018-02-09T06:56:25.867Z,4.38
2018-02-09T06:57:25.903Z,4.38
2018-02-09T06:58:25.651Z,4.39
2018-02-09T06:59:25.755Z,4.38
2018-02-09T07:00:25.726Z,4.39
2018-02-09T07:01:25.708Z,4.39
2018-02-09T07:02:25.828Z,4.4
2018-02-09T07:03:25.757Z,4.4
2018-02-09T07:04:25.843Z,4.41
2018-02-09T07:05:25.751Z,4.41
2018-02-09T07:06:25.801Z,4.4
2018-02-09T07:07:25.735Z,4.41
2018-02-09T07:08:25.793Z,4.4
2018-02-09T07:09:25.672Z,4.42
2018-02-09T07:10:25.806Z,4.41
2018-02-09T07:11:26.185Z,4.42
2018-02-09T07:12:25.671Z,4.42
2018-02-09T07:13:25.852Z,4.4
2018-02-09T07:14:25.726Z,4.4
2018-02-09T07:15:25.751Z,4.42
2018-02-09T07:16:25.827Z,4.4
2018-02-09T07:17:25.690Z,4.41
2018-02-09T07:18:25.645Z,4.4
2018-02-09T07:19:25.782Z,4.42
2018-02-09T07:20:25.799Z,4.4
2018-02-09T07:21:25.675Z,4.42
2018-02-09T07:22:25.859Z,4.43
2018-02-09T07:23:25.810Z,4.43
2018-02-09T07:24:25.875Z,4.42
2018-02-09T07:25:25.671Z,4.42
2018-02-09T07:26:25.756Z,4.44
2018-02-09T07:27:25.669Z,4.43
2018-02-09T07:28:25.667Z,4.41
2018-02-09T07:29:25.742Z,4.44
2018-02-09T07:30:25.727Z,4.44
2018-02-09T07:31:25.811Z,4.43
2018-02-09T07:32:25.668Z,4.42
2018-02-09T07:33:25.951Z,4.43
2018-02-09T07:34:25.642Z,4.46
2018-02-09T07:35:25.780Z,4.46
2018-02-09T07:36:25.675Z,4.45
2018-02-09T07:37:25.876Z,4.45
2018-02-09T07:38:25.757Z,4.46
2018-02-09T07:39:25.778Z,4.45
2018-02-09T07:40:25.755Z,4.45
2018-02-09T07:41:25.751Z,4.43
2018-02-09T07:42:25.749Z,4.41
2018-02-09T07:43:25.659Z,4.42
2018-02-09T07:44:25.720Z,4.41
2018-02-09T07:45:25.461Z,4.41
2018-02-09T07:46:25.553Z,4.41
2018-02-09T07:47:25.486Z,4.42
2018-02-09T07:48:25.620Z,4.41
2018-02-09T07:49:25.593Z,4.41
2018-02-09T07:50:25.453Z,4.4
2018-02-09T07:51:25.585Z,4.41
2018-02-09T07:52:25.486Z,4.42
2018-02-09T07:53:25.430Z,4.43
2018-02-09T07:54:25.545Z,4.42
2018-02-09T07:55:25.568Z,4.41
2018-02-09T07:56:25.634Z,4.41
2018-02-09T07:57:25.640Z,4.4
2018-02-09T07:58:25.544Z,4.4
2018-02-09T07:59:25.584Z,4.4
2018-02-09T08:00:25.855Z,4.4
2018-02-09T08:01:25.519Z,4.39
2018-02-09T08:02:25.562Z,4.4
2018-02-09T08:03:25.613Z,4.4
2018-02-09T08:04:25.486Z,4.41
2018-02-09T08:05:25.632Z,4.41
2018-02-09T08:06:25.642Z,4.4
2018-02-09T08:07:25.546Z,4.41
2018-02-09T08:08:25.577Z,4.39
2018-02-09T08:09:25.660Z,4.41
2018-02-09T08:10:25.536Z,4.4
2018-02-09T08:11:25.616Z,4.39
2018-02-09T08:12:25.463Z,4.4
2018-02-09T08:13:25.703Z,4.4
2018-02-09T08:14:25.581Z,4.41
2018-02-09T08:15:25.704Z,4.41
2018-02-09T08:16:25.522Z,4.4
2018-02-09T08:17:25.733Z,4.4
2018-02-09T08:18:25.671Z,4.4
2018-02-09T08:19:25.658Z,4.41
2018-02-09T08:20:25.590Z,4.41
2018-02-09T08:21:25.678Z,4.4
2018-02-09T08:22:25.684Z,4.41
2018-02-09T08:23:25.583Z,4.4
2018-02-09T08:24:25.494Z,4.41
2018-02-09T08:25:25.542Z,4.39
2018-02-09T08:26:25.553Z,4.4
2018-02-09T08:27:25.663Z,4.39
2018-02-09T08:28:25.472Z,4.39
2018-02-09T08:29:25.567Z,4.39
2018-02-09T08:30:25.581Z,4.38
2018-02-09T08:31:25.673Z,4.41
2018-02-09T08:32:25.613Z,4.4
2018-02-09T08:33:25.535Z,4.39
2018-02-09T08:34:25.610Z,4.39
2018-02-09T08:35:25.626Z,4.38
2018-02-09T08:36:25.634Z,4.38
2018-02-09T08:37:25.676Z,4.39
2018-02-09T08:38:25.430Z,4.4
2018-02-09T08:39:25.683Z,4.38
2018-02-09T08:40:25.557Z,4.38
2018-02-09T08:41:25.548Z,4.39
2018-02-09T08:42:25.624Z,4.39
2018-02-09T08:43:25.693Z,4.4
2018-02-09T08:44:25.444Z,4.37
2018-02-09T08:45:25.542Z,4.38
2018-02-09T08:46:25.620Z,4.39
2018-02-09T08:47:25.395Z,4.39
2018-02-09T08:48:25.641Z,4.39
2018-02-09T08:49:25.614Z,4.4
2018-02-09T08:50:25.565Z,4.39
2018-02-09T08:51:25.576Z,4.38
2018-02-09T08:52:25.606Z,4.39
2018-02-09T08:53:25.520Z,4.39
2018-02-09T08:54:25.537Z,4.42
2018-02-09T08:55:25.662Z,4.41
2018-02-09T08:56:25.575Z,4.4
2018-02-09T08:57:25.377Z,4.4
2018-02-09T08:58:25.639Z,4.39
2018-02-09T08:59:25.434Z,4.39
2018-02-09T09:00:25.501Z,4.41
2018-02-09T09:01:25.490Z,4.4
2018-02-09T09:02:25.343Z,4.42
2018-02-09T09:03:25.523Z,4.4
2018-02-09T09:04:25.413Z,4.41
2018-02-09T09:05:25.504Z,4.4
2018-02-09T09:06:25.552Z,4.41
2018-02-09T09:07:25.485Z,4.42
2018-02-09T09:08:25.442Z,4.41
2018-02-09T09:09:25.557Z,4.42
2018-02-09T09:10:25.519Z,4.44
2018-02-09T09:11:25.474Z,4.43
2018-02-09T09:12:25.452Z,4.45
2018-02-09T09:13:25.513Z,4.46
2018-02-09T09:14:25.508Z,4.46
2018-02-09T09:15:25.390Z,4.47
2018-02-09T09:16:25.507Z,4.48
2018-02-09T09:17:25.444Z,4.47
2018-02-09T09:18:25.195Z,4.47
2018-02-09T09:19:25.425Z,4.46
2018-02-09T09:20:25.195Z,4.47
2018-02-09T09:21:25.235Z,4.47
2018-02-09T09:22:25.220Z,4.46
2018-02-09T09:23:25.212Z,4.46
2018-02-09T09:24:25.274Z,4.47
2018-02-09T09:25:25.182Z,4.47
2018-02-09T09:26:25.254Z,4.47
2018-02-09T09:27:25.293Z,4.47
2018-02-09T09:28:25.370Z,4.48
2018-02-09T09:29:25.149Z,4.48
2018-02-09T09:30:25.297Z,4.47
2018-02-09T09:31:25.283Z,4.46
2018-02-09T09:32:25.278Z,4.48
2018-02-09T09:33:25.314Z,4.47
2018-02-09T09:34:25.221Z,4.49
2018-02-09T09:35:25.300Z,4.48
2018-02-09T09:36:25.285Z,4.47
2018-02-09T09:37:25.349Z,4.48
2018-02-09T09:38:25.169Z,4.5
2018-02-09T09:39:25.390Z,4.5
2018-02-09T09:40:25.287Z,4.49
2018-02-09T09:41:25.445Z,4.51
2018-02-09T09:42:25.304Z,4.5
2018-02-09T09:43:25.151Z,4.5
2018-02-09T09:44:25.341Z,4.5
2018-02-09T09:45:25.349Z,4.52
2018-02-09T09:46:25.295Z,4.51
2018-02-09T09:47:25.212Z,4.5
2018-02-09T09:48:25.193Z,4.52
2018-02-09T09:49:26.118Z,4.52
2018-02-09T09:50:26.112Z,4.52
2018-02-09T09:51:25.961Z,4.51
2018-02-09T09:52:25.970Z,4.5
2018-02-09T09:53:26.126Z,4.5
2018-02-09T09:54:26.039Z,4.5
2018-02-09T09:55:25.994Z,4.51
2018-02-09T09:56:26.058Z,4.5
2018-02-09T09:57:26.078Z,4.52
2018-02-09T09:58:25.966Z,4.52
2018-02-09T09:59:26.007Z,4.51
2018-02-09T10:00:25.944Z,4.5
2018-02-09T10:01:26.046Z,4.51
2018-02-09T10:02:26.007Z,4.51
2018-02-09T10:03:26.094Z,4.51
2018-02-09T10:04:26.011Z,4.52
2018-02-09T10:05:26.106Z,4.52
2018-02-09T10:06:25.988Z,4.52
2018-02-09T10:07:26.049Z,4.52
2018-02-09T10:08:26.083Z,4.53
2018-02-09T10:09:26.077Z,4.54
2018-02-09T10:10:26.159Z,4.53
2018-02-09T10:11:26.060Z,4.52
2018-02-09T10:12:25.984Z,4.52
2018-02-09T10:13:26.021Z,4.53
2018-02-09T10:14:25.973Z,4.51
2018-02-09T10:15:26.201Z,4.5
2018-02-09T10:16:26.028Z,4.51
2018-02-09T10:17:25.996Z,4.5
2018-02-09T10:18:26.025Z,4.53
2018-02-09T10:19:25.954Z,4.52
2018-02-09T10:20:25.933Z,4.52
2018-02-09T10:21:26.103Z,4.51
2018-02-09T10:22:25.832Z,4.53
2018-02-09T10:23:25.776Z,4.53
2018-02-09T10:24:25.816Z,4.53
2018-02-09T10:25:25.791Z,4.52
2018-02-09T10:26:25.851Z,4.52
2018-02-09T10:27:25.768Z,4.51
2018-02-09T10:28:25.749Z,4.52
2018-02-09T10:29:25.802Z,4.53
2018-02-09T10:30:26.056Z,4.52
2018-02-09T10:31:25.889Z,4.52
2018-02-09T10:32:25.915Z,4.52
2018-02-09T10:33:25.832Z,4.53
2018-02-09T10:34:25.940Z,4.53
2018-02-09T10:35:25.934Z,4.52
2018-02-09T10:36:25.873Z,4.53
2018-02-09T10:37:25.907Z,4.53
2018-02-09T10:38:25.747Z,4.53
2018-02-09T10:39:25.839Z,4.54
2018-02-09T10:40:25.823Z,4.54
2018-02-09T10:41:26.172Z,4.53
2018-02-09T10:42:25.827Z,4.55
2018-02-09T10:43:25.938Z,4.55
2018-02-09T10:44:25.882Z,4.56
2018-02-09T10:45:25.860Z,4.53
2018-02-09T10:46:25.949Z,4.55
2018-02-09T10:47:25.927Z,4.55
2018-02-09T10:48:25.885Z,4.55
2018-02-09T10:49:25.953Z,4.55
2018-02-09T10:50:25.756Z,4.56
2018-02-09T10:51:25.831Z,4.57
2018-02-09T10:52:25.811Z,4.56
2018-02-09T10:53:25.845Z,4.56
2018-02-09T10:54:25.925Z,4.56
2018-02-09T10:55:25.790Z,4.57
2018-02-09T10:56:25.900Z,4.57
2018-02-09T10:57:25.924Z,4.58
2018-02-09T10:58:25.833Z,4.58
2018-02-09T10:59:26.023Z,4.58
2018-02-09T11:00:25.823Z,4.58
2018-02-09T11:01:26.081Z,4.58
2018-02-09T11:02:25.863Z,4.58
2018-02-09T11:03:25.869Z,4.59
2018-02-09T11:04:25.751Z,4.58
2018-02-09T11:05:25.845Z,4.56
2018-02-09T11:06:25.810Z,4.56
2018-02-09T11:07:25.794Z,4.57
2018-02-09T11:08:25.833Z,4.57
2018-02-09T11:09:25.749Z,4.58
2018-02-09T11:10:25.864Z,4.57
2018-02-09T11:11:25.922Z,4.58
2018-02-09T11:12:25.714Z,4.58
2018-02-09T11:13:25.916Z,4.58
2018-02-09T11:14:25.833Z,4.58
2018-02-09T11:15:25.692Z,4.57
2018-02-09T11:16:25.897Z,4.56
2018-02-09T11:17:25.744Z,4.58
2018-02-09T11:18:25.790Z,4.58
2018-02-09T11:19:25.875Z,4.6
2018-02-09T11:20:25.829Z,4.57
2018-02-09T11:21:25.682Z,4.59
2018-02-09T11:22:25.614Z,4.59
2018-02-09T11:23:25.754Z,4.6
2018-02-09T11:24:25.796Z,4.58
2018-02-09T11:25:25.712Z,4.6
2018-02-09T11:26:25.683Z,4.6
2018-02-09T11:27:25.604Z,4.58
2018-02-09T11:28:25.783Z,4.6
2018-02-09T11:29:25.739Z,4.6
2018-02-09T11:30:25.753Z,4.61
2018-02-09T11:31:25.675Z,4.59
2018-02-09T11:32:25.756Z,4.59
2018-02-09T11:33:25.835Z,4.59
2018-02-09T11:34:25.780Z,4.59
2018-02-09T11:35:25.668Z,4.59
2018-02-09T11:36:25.626Z,4.6
2018-02-09T11:37:25.768Z,4.6
2018-02-09T11:38:25.649Z,4.6
2018-02-09T11:39:25.681Z,4.6
2018-02-09T11:40:25.635Z,4.6
2018-02-09T11:41:25.739Z,4.6
2018-02-09T11:42:25.643Z,4.61
2018-02-09T11:43:25.573Z,4.6
2018-02-09T11:44:25.775Z,4.6
2018-02-09T11:45:25.644Z,4.6
2018-02-09T11:46:25.673Z,4.6
2018-02-09T11:47:25.824Z,4.6
2018-02-09T11:48:25.703Z,4.61
2018-02-09T11:49:25.647Z,4.61
2018-02-09T11:50:25.592Z,4.61
2018-02-09T11:51:25.761Z,4.59
2018-02-09T11:52:25.998Z,4.58
2018-02-09T11:53:25.523Z,4.59
2018-02-09T11:54:25.541Z,4.6
2018-02-09T11:55:25.548Z,4.59
2018-02-09T11:56:25.596Z,4.57
2018-02-09T11:57:25.558Z,4.59
2018-02-09T11:58:25.628Z,4.58
2018-02-09T11:59:25.725Z,4.58
2018-02-09T12:00:25.589Z,4.58
2018-02-09T12:01:25.576Z,4.57
2018-02-09T12:02:25.676Z,4.58
2018-02-09T12:03:25.605Z,4.57
2018-02-09T12:04:25.557Z,4.6
2018-02-09T12:05:25.621Z,4.61
2018-02-09T12:06:25.464Z,4.6
2018-02-09T12:07:25.636Z,4.61
2018-02-09T12:08:25.537Z,4.63
2018-02-09T12:09:25.754Z,4.65
2018-02-09T12:10:25.631Z,4.62
2018-02-09T12:11:25.797Z,4.63
2018-02-09T12:12:25.771Z,4.62
2018-02-09T12:13:25.650Z,4.64
2018-02-09T12:14:25.641Z,4.64
2018-02-09T12:15:25.677Z,4.65
2018-02-09T12:16:25.818Z,4.64
2018-02-09T12:17:25.619Z,4.63
2018-02-09T12:18:25.616Z,4.61
2018-02-09T12:19:25.612Z,4.58
2018-02-09T12:20:25.585Z,4.59
2018-02-09T12:21:25.755Z,4.59
2018-02-09T12:22:25.779Z,4.56
2018-02-09T12:23:25.842Z,4.58
2018-02-09T12:24:25.954Z,4.59
2018-02-09T12:25:25.590Z,4.63
2018-02-09T12:26:25.668Z,4.61
2018-02-09T12:27:25.661Z,4.6
2018-02-09T12:28:25.821Z,4.58
2018-02-09T12:29:25.726Z,4.58
2018-02-09T12:30:25.688Z,4.61
2018-02-09T12:31:26.098Z,4.58
2018-02-09T12:32:25.682Z,4.6
2018-02-09T12:33:25.802Z,4.61
2018-02-09T12:34:25.694Z,4.61
2018-02-09T12:35:25.559Z,4.62
2018-02-09T12:36:25.559Z,4.6
2018-02-09T12:37:25.644Z,4.59
2018-02-09T12:38:25.592Z,4.6
2018-02-09T12:39:25.956Z,4.58
2018-02-09T12:40:25.748Z,4.6
2018-02-09T12:41:25.602Z,4.58
2018-02-09T12:42:25.833Z,4.58
2018-02-09T12:43:25.766Z,4.57
2018-02-09T12:44:26.016Z,4.59
2018-02-09T12:45:25.731Z,4.6
2018-02-09T12:46:25.736Z,4.58
2018-02-09T12:47:25.991Z,4.58
2018-02-09T12:48:25.722Z,4.58
2018-02-09T12:49:25.776Z,4.6
2018-02-09T12:50:25.769Z,4.6
2018-02-09T12:51:25.803Z,4.59
2018-02-09T12:52:25.715Z,4.59
2018-02-09T12:53:25.560Z,4.6
2018-02-09T12:54:25.566Z,4.58
2018-02-09T12:55:25.500Z,4.57
2018-02-09T12:56:25.724Z,4.55
2018-02-09T12:57:25.676Z,4.58
2018-02-09T12:58:25.625Z,4.59
2018-02-09T12:59:25.584Z,4.57
2018-02-09T13:00:25.649Z,4.57
2018-02-09T13:01:25.524Z,4.57
2018-02-09T13:02:25.635Z,4.56
2018-02-09T13:03:25.503Z,4.56
2018-02-09T13:04:25.615Z,4.57
2018-02-09T13:05:25.549Z,4.58
2018-02-09T13:06:25.673Z,4.59
2018-02-09T13:07:25.517Z,4.59
2018-02-09T13:08:25.522Z,4.57
2018-02-09T13:09:25.577Z,4.58
2018-02-09T13:10:25.626Z,4.58
2018-02-09T13:11:25.564Z,4.6
2018-02-09T13:12:25.528Z,4.62
2018-02-09T13:13:25.480Z,4.6
2018-02-09T13:14:25.460Z,4.59
2018-02-09T13:15:25.594Z,4.6
2018-02-09T13:16:25.625Z,4.61
2018-02-09T13:17:25.663Z,4.57
2018-02-09T13:18:29.467Z,4.58
2018-02-09T13:19:25.660Z,4.58
2018-02-09T13:20:25.551Z,4.6
2018-02-09T13:21:25.656Z,4.59
2018-02-09T13:22:25.612Z,4.6
2018-02-09T13:23:25.627Z,4.59
2018-02-09T13:24:25.489Z,4.59
2018-02-09T13:25:25.596Z,4.62